Time;durP1;ratioP1;P1;durP2;ratioP2;P2;SDS_P1;SDS_P2;PMS_P1;PMS_P2;Temp;Humidity;BMP_temperature;BMP_pressure;BME280_temperature;BME280_humidity;BME280_pressure;Samples;Min_cycle;Max_cycle;Signal;HPM_P1;HPM_P2
2022/03/03 00:01:12;;;;;;;24.70;18.40;;;;;;;;;;5031532;28;20205;-75
2022/03/03 00:03:41;;;;;;;25.07;17.53;;;;;;;;;;5030983;28;20271;-75
2022/03/03 00:06:09;;;;;;;23.20;17.30;;;;;;;;;;5030773;28;20219;-75
2022/03/03 00:08:38;;;;;;;25.17;17.30;;;;;;;;;;5032147;28;20221;-75
2022/03/03 00:11:06;;;;;;;22.27;15.90;;;;;;;;;;5031505;28;20609;-75
2022/03/03 00:13:34;;;;;;;22.63;17.17;;;;;;;;;;5031858;28;20576;-75
2022/03/03 00:16:05;;;;;;;25.50;18.17;;;;;;;;;;5031009;28;20234;-75
2022/03/03 00:18:33;;;;;;;25.90;18.50;;;;;;;;;;5031267;28;20209;-75
2022/03/03 00:21:02;;;;;;;26.53;19.00;;;;;;;;;;5030143;28;20209;-75
2022/03/03 00:23:30;;;;;;;24.10;18.10;;;;;;;;;;5031231;28;20217;-75
2022/03/03 00:25:59;;;;;;;27.03;19.27;;;;;;;;;;5028226;28;20259;-75
2022/03/03 00:28:27;;;;;;;28.00;19.33;;;;;;;;;;5031240;28;20210;-75
2022/03/03 00:30:56;;;;;;;25.87;18.93;;;;;;;;;;5031272;28;20267;-75
2022/03/03 00:33:25;;;;;;;28.20;19.27;;;;;;;;;;5030380;28;20653;-75
2022/03/03 00:35:54;;;;;;;23.23;17.17;;;;;;;;;;5029912;28;20664;-75
2022/03/03 00:38:22;;;;;;;23.13;17.17;;;;;;;;;;5029324;28;20215;-75
2022/03/03 00:40:51;;;;;;;24.73;18.47;;;;;;;;;;5031497;28;20204;-75
2022/03/03 00:43:19;;;;;;;25.73;18.40;;;;;;;;;;5030757;28;20687;-75
2022/03/03 00:45:48;;;;;;;25.57;18.17;;;;;;;;;;5030544;28;20211;-75
2022/03/03 00:48:16;;;;;;;27.53;19.10;;;;;;;;;;5029121;28;20251;-75
2022/03/03 00:50:46;;;;;;;25.97;19.20;;;;;;;;;;5030200;28;20646;-75
2022/03/03 00:53:15;;;;;;;27.17;19.40;;;;;;;;;;5025415;28;20229;-75
2022/03/03 00:55:46;;;;;;;24.80;18.80;;;;;;;;;;5032347;28;20623;-75
2022/03/03 00:58:14;;;;;;;23.73;17.83;;;;;;;;;;5032946;28;20212;-75
2022/03/03 01:00:43;;;;;;;26.37;18.53;;;;;;;;;;5032937;28;20204;-75
2022/03/03 01:03:12;;;;;;;25.10;17.53;;;;;;;;;;5030380;28;20691;-75
2022/03/03 01:05:41;;;;;;;26.20;19.00;;;;;;;;;;5033190;28;20279;-75
2022/03/03 01:08:12;;;;;;;26.67;18.97;;;;;;;;;;5032900;28;20578;-74
2022/03/03 01:10:41;;;;;;;30.57;20.83;;;;;;;;;;5032482;28;20263;-74
2022/03/03 01:13:10;;;;;;;30.70;20.53;;;;;;;;;;5032115;28;20239;-74
2022/03/03 01:15:38;;;;;;;27.77;20.20;;;;;;;;;;5032336;28;20199;-74
2022/03/03 01:18:07;;;;;;;29.73;20.10;;;;;;;;;;5032298;28;20204;-75
2022/03/03 01:20:35;;;;;;;28.80;20.77;;;;;;;;;;5033243;28;20204;-74
2022/03/03 01:23:04;;;;;;;29.43;20.20;;;;;;;;;;5031476;28;20228;-75
2022/03/03 01:25:33;;;;;;;30.73;20.43;;;;;;;;;;5032695;28;20215;-74
2022/03/03 01:28:02;;;;;;;30.70;20.90;;;;;;;;;;5032415;28;20228;-74
2022/03/03 01:30:30;;;;;;;26.77;20.03;;;;;;;;;;5032669;28;20242;-75
2022/03/03 01:32:59;;;;;;;25.77;18.80;;;;;;;;;;5032986;28;20279;-75
2022/03/03 01:35:27;;;;;;;27.57;19.77;;;;;;;;;;5032575;28;20196;-75
2022/03/03 01:37:56;;;;;;;28.77;19.60;;;;;;;;;;5032126;28;20219;-75
2022/03/03 01:40:25;;;;;;;26.87;19.43;;;;;;;;;;5032984;28;20726;-75
2022/03/03 01:42:54;;;;;;;32.27;21.53;;;;;;;;;;5031703;28;20223;-75
2022/03/03 01:45:23;;;;;;;29.37;21.40;;;;;;;;;;5032778;28;20204;-75
2022/03/03 01:47:51;;;;;;;31.23;21.47;;;;;;;;;;5032335;28;20227;-75
2022/03/03 01:50:20;;;;;;;28.23;21.20;;;;;;;;;;5032898;28;20247;-74
2022/03/03 01:52:48;;;;;;;30.73;21.43;;;;;;;;;;5032528;28;20228;-75
2022/03/03 01:55:17;;;;;;;30.53;21.60;;;;;;;;;;5032501;28;20203;-75
2022/03/03 01:57:45;;;;;;;30.63;22.00;;;;;;;;;;5033360;28;20228;-75
2022/03/03 02:00:16;;;;;;;30.37;22.00;;;;;;;;;;5033066;28;20211;-75
2022/03/03 02:02:45;;;;;;;30.97;22.07;;;;;;;;;;5020826;28;20209;-75
2022/03/03 02:05:14;;;;;;;32.23;23.97;;;;;;;;;;5029520;28;20288;-75
2022/03/03 02:07:43;;;;;;;28.97;21.97;;;;;;;;;;5032101;28;20731;-75
2022/03/03 02:10:12;;;;;;;33.93;22.50;;;;;;;;;;5032714;28;20211;-75
2022/03/03 02:12:40;;;;;;;30.20;22.03;;;;;;;;;;5032159;28;20259;-75
2022/03/03 02:15:09;;;;;;;30.73;22.13;;;;;;;;;;5031922;28;20208;-75
2022/03/03 02:17:39;;;;;;;31.40;22.67;;;;;;;;;;5032103;28;20229;-75
2022/03/03 02:20:19;;;;;;;30.33;22.03;;;;;;;;;;5032382;28;20638;-75
2022/03/03 02:22:48;;;;;;;31.33;21.90;;;;;;;;;;5032195;28;20343;-75
2022/03/03 02:25:16;;;;;;;32.03;22.90;;;;;;;;;;5033338;28;20195;-75
2022/03/03 02:27:45;;;;;;;32.30;22.57;;;;;;;;;;5035841;28;20795;-75
2022/03/03 02:30:15;;;;;;;31.13;22.50;;;;;;;;;;5035612;28;20202;-75
2022/03/03 02:32:43;;;;;;;32.70;22.37;;;;;;;;;;5034627;28;20215;-75
2022/03/03 02:35:14;;;;;;;28.23;20.90;;;;;;;;;;5029302;28;20227;-75
2022/03/03 02:37:43;;;;;;;27.07;20.87;;;;;;;;;;5025063;28;20232;-75
2022/03/03 02:40:13;;;;;;;29.67;21.33;;;;;;;;;;5035322;28;20211;-75
2022/03/03 02:42:41;;;;;;;28.90;21.13;;;;;;;;;;5035993;28;20204;-75
2022/03/03 02:45:10;;;;;;;27.70;20.53;;;;;;;;;;5035033;28;20620;-75
2022/03/03 02:47:41;;;;;;;30.60;20.97;;;;;;;;;;5032178;28;20255;-75
2022/03/03 02:50:10;;;;;;;33.43;21.17;;;;;;;;;;5034059;28;20262;-75
2022/03/03 02:52:40;;;;;;;29.33;21.90;;;;;;;;;;5034980;28;20259;-75
2022/03/03 02:55:09;;;;;;;31.53;22.10;;;;;;;;;;5034964;28;20246;-75
2022/03/03 02:57:56;;;;;;;28.73;20.67;;;;;;;;;;5035936;28;20231;-75
2022/03/03 03:00:25;;;;;;;28.53;21.47;;;;;;;;;;5035457;28;20215;-75
2022/03/03 03:02:54;;;;;;;28.07;20.73;;;;;;;;;;5036032;28;20667;-75
2022/03/03 03:05:23;;;;;;;26.83;20.63;;;;;;;;;;5033915;28;20227;-75
2022/03/03 03:07:53;;;;;;;30.47;21.50;;;;;;;;;;5034221;28;20232;-75
2022/03/03 03:10:21;;;;;;;28.20;20.70;;;;;;;;;;5035829;28;20204;-75
2022/03/03 03:12:50;;;;;;;29.43;20.37;;;;;;;;;;5034579;28;20349;-75
2022/03/03 03:15:18;;;;;;;28.33;20.60;;;;;;;;;;5034659;28;20659;-75
2022/03/03 03:17:47;;;;;;;29.30;21.13;;;;;;;;;;5032911;28;20219;-75
2022/03/03 03:20:15;;;;;;;28.73;20.63;;;;;;;;;;5035486;28;20207;-75
2022/03/03 03:22:44;;;;;;;30.37;21.53;;;;;;;;;;5035648;28;20211;-75
2022/03/03 03:25:15;;;;;;;25.60;18.63;;;;;;;;;;5035513;28;20235;-75
2022/03/03 03:27:45;;;;;;;27.90;19.43;;;;;;;;;;5032381;28;20246;-75
2022/03/03 03:30:14;;;;;;;31.00;20.23;;;;;;;;;;5034830;28;20212;-75
2022/03/03 03:32:43;;;;;;;32.57;22.07;;;;;;;;;;5035361;28;20609;-75
2022/03/03 03:35:11;;;;;;;27.33;20.80;;;;;;;;;;5032976;28;20199;-75
2022/03/03 03:37:40;;;;;;;29.27;20.87;;;;;;;;;;5033516;28;20585;-75
2022/03/03 03:40:09;;;;;;;30.43;21.40;;;;;;;;;;5035413;28;20285;-75
2022/03/03 03:42:39;;;;;;;27.87;20.90;;;;;;;;;;5033395;28;20212;-75
2022/03/03 03:45:08;;;;;;;30.60;21.30;;;;;;;;;;5033901;28;20246;-75
2022/03/03 03:47:36;;;;;;;30.93;22.60;;;;;;;;;;5033886;28;20219;-75
2022/03/03 03:50:05;;;;;;;33.00;21.53;;;;;;;;;;5015337;28;20204;-75
2022/03/03 03:52:33;;;;;;;29.37;21.93;;;;;;;;;;5034345;28;20261;-75
2022/03/03 03:55:02;;;;;;;30.77;22.43;;;;;;;;;;5034092;28;20200;-75
2022/03/03 03:57:31;;;;;;;33.37;22.20;;;;;;;;;;5033554;28;20735;-75
2022/03/03 04:00:01;;;;;;;31.73;23.00;;;;;;;;;;5034976;28;20281;-75
2022/03/03 04:02:29;;;;;;;32.57;23.17;;;;;;;;;;5034009;28;20244;-75
2022/03/03 04:04:58;;;;;;;30.90;21.80;;;;;;;;;;5033655;28;20714;-75
2022/03/03 04:07:27;;;;;;;31.87;21.77;;;;;;;;;;5032671;28;20254;-75
2022/03/03 04:09:56;;;;;;;30.20;21.00;;;;;;;;;;5034427;28;20566;-75
2022/03/03 04:12:25;;;;;;;32.13;21.73;;;;;;;;;;5030693;28;20207;-75
2022/03/03 04:14:54;;;;;;;28.03;20.63;;;;;;;;;;5033495;28;20226;-76
2022/03/03 04:17:23;;;;;;;30.67;21.20;;;;;;;;;;5033590;28;20224;-75
2022/03/03 04:19:52;;;;;;;30.53;19.63;;;;;;;;;;5034891;28;20208;-75
2022/03/03 04:22:20;;;;;;;30.07;19.70;;;;;;;;;;5033478;28;20203;-75
2022/03/03 04:24:49;;;;;;;28.33;20.27;;;;;;;;;;5033326;28;20219;-75
2022/03/03 04:27:17;;;;;;;27.30;19.83;;;;;;;;;;5033674;28;20219;-75
2022/03/03 04:29:46;;;;;;;26.47;19.67;;;;;;;;;;5034682;28;20223;-75
2022/03/03 04:32:14;;;;;;;31.30;20.00;;;;;;;;;;5034734;28;20211;-75
2022/03/03 04:34:44;;;;;;;34.00;21.77;;;;;;;;;;5033599;28;20601;-75
2022/03/03 04:37:13;;;;;;;31.60;21.20;;;;;;;;;;5033114;28;20227;-76
2022/03/03 04:39:42;;;;;;;32.37;21.07;;;;;;;;;;5034060;28;20239;-75
2022/03/03 04:42:10;;;;;;;30.57;21.93;;;;;;;;;;5034012;28;20204;-75
2022/03/03 04:44:39;;;;;;;30.37;22.03;;;;;;;;;;5027918;28;20231;-75
2022/03/03 04:47:07;;;;;;;29.80;21.50;;;;;;;;;;5033539;28;20224;-75
2022/03/03 04:49:36;;;;;;;29.60;20.67;;;;;;;;;;5031383;28;20210;-75
2022/03/03 04:52:08;;;;;;;30.40;21.27;;;;;;;;;;5033593;28;20214;-76
2022/03/03 04:54:37;;;;;;;30.23;21.40;;;;;;;;;;5031380;28;20187;-75
2022/03/03 04:57:05;;;;;;;31.70;22.07;;;;;;;;;;5032799;28;20293;-75
2022/03/03 04:59:33;;;;;;;29.73;20.53;;;;;;;;;;5033326;28;20623;-75
2022/03/03 05:02:02;;;;;;;31.27;21.40;;;;;;;;;;5033132;28;20602;-76
2022/03/03 05:04:30;;;;;;;32.53;22.63;;;;;;;;;;5033198;28;20290;-75
2022/03/03 05:06:59;;;;;;;33.23;22.00;;;;;;;;;;5032697;28;20709;-76
2022/03/03 05:09:28;;;;;;;32.87;21.90;;;;;;;;;;5033315;28;20212;-75
2022/03/03 05:11:59;;;;;;;33.30;22.20;;;;;;;;;;5029768;28;20199;-75
2022/03/03 05:14:27;;;;;;;29.97;21.33;;;;;;;;;;5032191;28;20204;-75
2022/03/03 05:16:56;;;;;;;32.93;22.93;;;;;;;;;;5032936;28;20227;-75
2022/03/03 05:19:25;;;;;;;32.90;21.90;;;;;;;;;;5032479;28;20242;-76
2022/03/03 05:21:53;;;;;;;31.57;22.00;;;;;;;;;;5032859;28;20250;-76
2022/03/03 05:24:21;;;;;;;38.73;26.07;;;;;;;;;;5032354;28;20215;-78
2022/03/03 05:26:51;;;;;;;36.00;23.10;;;;;;;;;;5032897;28;20288;-78
2022/03/03 05:29:20;;;;;;;36.13;23.17;;;;;;;;;;5032958;28;20733;-78
2022/03/03 05:31:48;;;;;;;35.10;23.00;;;;;;;;;;5031868;28;20208;-76
2022/03/03 05:34:16;;;;;;;32.20;22.13;;;;;;;;;;5031943;28;20608;-78
2022/03/03 05:36:45;;;;;;;29.80;21.50;;;;;;;;;;5032613;28;20749;-75
2022/03/03 05:39:13;;;;;;;34.47;22.47;;;;;;;;;;5032836;28;20606;-76
2022/03/03 05:41:41;;;;;;;32.33;21.67;;;;;;;;;;5032814;28;20594;-77
2022/03/03 05:44:13;;;;;;;31.10;21.40;;;;;;;;;;5032394;28;20211;-75
2022/03/03 05:46:43;;;;;;;35.10;22.33;;;;;;;;;;5031125;28;20310;-77
2022/03/03 05:49:11;;;;;;;31.27;22.10;;;;;;;;;;5033616;28;20261;-75
2022/03/03 05:51:40;;;;;;;28.77;20.60;;;;;;;;;;5032784;28;20254;-75
2022/03/03 05:54:08;;;;;;;31.93;22.53;;;;;;;;;;5032575;28;20608;-76
2022/03/03 05:56:38;;;;;;;33.27;20.90;;;;;;;;;;5032037;28;20215;-75
2022/03/03 05:59:08;;;;;;;27.57;21.13;;;;;;;;;;5033262;28;20217;-77
2022/03/03 06:01:38;;;;;;;32.20;21.27;;;;;;;;;;5039022;28;20243;-75
2022/03/03 06:04:08;;;;;;;30.37;21.33;;;;;;;;;;5044957;28;20195;-78
2022/03/03 06:06:37;;;;;;;29.90;21.70;;;;;;;;;;5045012;28;20745;-77
2022/03/03 06:09:09;;;;;;;30.43;21.73;;;;;;;;;;5025349;28;20792;-76
2022/03/03 06:11:38;;;;;;;32.87;22.40;;;;;;;;;;5026564;28;20771;-79
2022/03/03 06:14:07;;;;;;;31.90;22.00;;;;;;;;;;5034429;28;20203;-78
2022/03/03 06:16:39;;;;;;;35.93;22.80;;;;;;;;;;5051106;28;20222;-78
2022/03/03 06:19:10;;;;;;;32.97;22.27;;;;;;;;;;5038786;28;20194;-75
2022/03/03 06:21:38;;;;;;;35.07;22.33;;;;;;;;;;5037784;28;20203;-76
2022/03/03 06:24:07;;;;;;;35.43;23.10;;;;;;;;;;5047810;28;20204;-76
2022/03/03 06:26:36;;;;;;;32.23;22.70;;;;;;;;;;5036389;28;20219;-76
2022/03/03 06:29:04;;;;;;;34.10;22.37;;;;;;;;;;5036188;28;20216;-76
2022/03/03 06:31:33;;;;;;;32.50;23.27;;;;;;;;;;5044378;28;20206;-75
2022/03/03 06:34:01;;;;;;;33.53;22.83;;;;;;;;;;5055776;28;20841;-75
2022/03/03 06:36:31;;;;;;;33.50;22.77;;;;;;;;;;5042729;28;20277;-77
2022/03/03 06:38:59;;;;;;;37.07;23.63;;;;;;;;;;5036280;28;20253;-75
2022/03/03 06:41:28;;;;;;;37.00;23.30;;;;;;;;;;5036312;28;20659;-77
2022/03/03 06:43:58;;;;;;;35.77;22.90;;;;;;;;;;5036190;28;20199;-77
2022/03/03 06:46:26;;;;;;;34.87;24.53;;;;;;;;;;5036731;28;20592;-76
2022/03/03 06:48:55;;;;;;;34.53;23.83;;;;;;;;;;5035611;28;20230;-76
2022/03/03 06:51:26;;;;;;;31.57;23.13;;;;;;;;;;5035473;28;20204;-75
2022/03/03 06:53:57;;;;;;;36.77;24.10;;;;;;;;;;5035205;28;20543;-75
2022/03/03 06:56:25;;;;;;;36.23;23.70;;;;;;;;;;5036456;28;20623;-75
2022/03/03 06:58:54;;;;;;;33.30;23.63;;;;;;;;;;5036388;28;20203;-77
2022/03/03 07:01:24;;;;;;;35.10;24.03;;;;;;;;;;5036481;28;20566;-75
2022/03/03 07:03:53;;;;;;;32.87;23.60;;;;;;;;;;5035904;28;20212;-77
2022/03/03 07:06:21;;;;;;;33.40;23.57;;;;;;;;;;5035803;28;20227;-75
2022/03/03 07:08:51;;;;;;;31.67;23.07;;;;;;;;;;5035527;28;20199;-76
2022/03/03 07:11:21;;;;;;;32.00;22.43;;;;;;;;;;5035730;28;20200;-75
2022/03/03 07:13:49;;;;;;;37.30;24.73;;;;;;;;;;5036064;28;20231;-76
2022/03/03 07:16:24;;;;;;;33.33;24.40;;;;;;;;;;5035879;28;20623;-76
2022/03/03 07:18:53;;;;;;;34.57;23.67;;;;;;;;;;5036286;28;20203;-75
2022/03/03 07:21:26;;;;;;;30.30;23.37;;;;;;;;;;5036222;28;20211;-77
2022/03/03 07:24:00;;;;;;;35.73;24.03;;;;;;;;;;5036135;28;20192;-77
2022/03/03 07:26:30;;;;;;;32.33;23.50;;;;;;;;;;5036271;28;20255;-77
2022/03/03 07:29:01;;;;;;;33.17;24.70;;;;;;;;;;5038510;28;20212;-77
2022/03/03 07:31:31;;;;;;;32.47;23.33;;;;;;;;;;5038968;28;20205;-76
2022/03/03 07:34:01;;;;;;;31.50;23.30;;;;;;;;;;5039533;28;20197;-76
2022/03/03 07:36:34;;;;;;;30.03;23.43;;;;;;;;;;5040042;28;20643;-77
2022/03/03 07:39:06;;;;;;;32.10;22.40;;;;;;;;;;5040702;28;20214;-75
2022/03/03 07:41:36;;;;;;;26.50;21.73;;;;;;;;;;5038940;28;20206;-76
2022/03/03 07:44:06;;;;;;;30.20;22.13;;;;;;;;;;5040272;28;20199;-77
2022/03/03 07:46:34;;;;;;;31.60;21.47;;;;;;;;;;5038696;28;20241;-75
2022/03/03 07:49:03;;;;;;;28.67;21.33;;;;;;;;;;5041554;28;20199;-76
2022/03/03 07:51:31;;;;;;;28.53;21.63;;;;;;;;;;5042996;28;20626;-79
2022/03/03 07:53:59;;;;;;;32.73;23.23;;;;;;;;;;5042466;28;20200;-77
2022/03/03 07:56:29;;;;;;;27.13;21.03;;;;;;;;;;5042731;28;20216;-76
2022/03/03 07:59:03;;;;;;;24.97;20.57;;;;;;;;;;5042078;28;20342;-76
2022/03/03 08:01:32;;;;;;;26.00;20.50;;;;;;;;;;5042244;28;20627;-78
2022/03/03 08:04:02;;;;;;;25.30;19.43;;;;;;;;;;5042049;28;20200;-78
2022/03/03 08:06:31;;;;;;;28.93;20.77;;;;;;;;;;5042613;28;20315;-77
2022/03/03 08:09:00;;;;;;;27.30;20.63;;;;;;;;;;5041341;28;20212;-76
2022/03/03 08:11:29;;;;;;;26.17;20.83;;;;;;;;;;5037623;28;20211;-77
2022/03/03 08:13:58;;;;;;;26.57;20.87;;;;;;;;;;5039865;28;20203;-76
2022/03/03 08:16:28;;;;;;;29.60;22.07;;;;;;;;;;5040209;28;20219;-78
2022/03/03 08:19:03;;;;;;;28.97;21.47;;;;;;;;;;5040183;28;20188;-76
2022/03/03 08:21:33;;;;;;;28.23;22.30;;;;;;;;;;5042122;28;20249;-76
2022/03/03 08:24:02;;;;;;;27.63;21.33;;;;;;;;;;5039046;28;20199;-76
2022/03/03 08:26:30;;;;;;;28.10;21.00;;;;;;;;;;5042085;28;20235;-77
2022/03/03 08:28:59;;;;;;;29.13;21.43;;;;;;;;;;5041512;28;20682;-75
2022/03/03 08:31:30;;;;;;;25.27;21.53;;;;;;;;;;5044905;28;20208;-75
2022/03/03 08:34:03;;;;;;;26.10;20.03;;;;;;;;;;5045974;28;20706;-75
2022/03/03 08:36:35;;;;;;;26.10;21.37;;;;;;;;;;5045026;28;20262;-75
2022/03/03 08:39:05;;;;;;;27.03;21.23;;;;;;;;;;5044633;28;20215;-75
2022/03/03 08:41:36;;;;;;;25.33;20.23;;;;;;;;;;5043382;28;20199;-78
2022/03/03 08:44:07;;;;;;;27.70;21.17;;;;;;;;;;5041784;28;20648;-75
2022/03/03 08:46:38;;;;;;;27.23;20.40;;;;;;;;;;5040612;28;20247;-77
2022/03/03 08:49:08;;;;;;;26.47;21.07;;;;;;;;;;5037637;28;20262;-78
2022/03/03 08:51:37;;;;;;;25.57;20.17;;;;;;;;;;5036430;28;20198;-77
2022/03/03 08:54:06;;;;;;;25.03;19.43;;;;;;;;;;5035955;28;20691;-77
2022/03/03 08:56:34;;;;;;;24.47;19.10;;;;;;;;;;5035320;28;20250;-78
2022/03/03 08:59:03;;;;;;;23.70;19.80;;;;;;;;;;5034678;28;20260;-78
2022/03/03 09:01:31;;;;;;;25.73;20.07;;;;;;;;;;5036175;28;20211;-78
2022/03/03 09:04:07;;;;;;;25.50;18.80;;;;;;;;;;5038631;28;20194;-77
2022/03/03 09:06:36;;;;;;;23.80;19.10;;;;;;;;;;5036429;28;20709;-78
2022/03/03 09:09:04;;;;;;;22.07;18.83;;;;;;;;;;5035605;28;20213;-78
2022/03/03 09:11:32;;;;;;;23.17;20.13;;;;;;;;;;5034942;28;20280;-78
2022/03/03 09:14:01;;;;;;;25.53;20.17;;;;;;;;;;5037706;28;20203;-77
2022/03/03 09:16:29;;;;;;;26.23;18.37;;;;;;;;;;5034345;28;20227;-77
2022/03/03 09:18:58;;;;;;;23.47;18.70;;;;;;;;;;5035107;28;20618;-76
2022/03/03 09:21:28;;;;;;;22.10;17.73;;;;;;;;;;5035927;28;20576;-77
2022/03/03 09:23:57;;;;;;;22.17;18.67;;;;;;;;;;5034588;28;20214;-78
2022/03/03 09:26:27;;;;;;;21.33;18.27;;;;;;;;;;5035373;28;20560;-79
2022/03/03 09:28:56;;;;;;;19.67;17.37;;;;;;;;;;5037616;28;20208;-77
2022/03/03 09:37:18;;;;;;;18.50;15.70;;;;;;;;;;5057929;28;20214;-76
2022/03/03 09:39:48;;;;;;;19.60;17.07;;;;;;;;;;5061594;28;20199;-78
2022/03/03 09:42:16;;;;;;;18.70;16.37;;;;;;;;;;5058890;28;20200;-77
2022/03/03 09:44:44;;;;;;;16.40;14.70;;;;;;;;;;5048358;28;20191;-77
2022/03/03 09:47:13;;;;;;;16.47;14.53;;;;;;;;;;5057549;28;20215;-76
2022/03/03 09:49:41;;;;;;;14.93;13.33;;;;;;;;;;5043990;28;20671;-77
2022/03/03 09:52:14;;;;;;;15.80;13.73;;;;;;;;;;5048145;28;20285;-75
2022/03/03 09:54:44;;;;;;;17.67;14.67;;;;;;;;;;5047149;28;20222;-75
2022/03/03 09:57:15;;;;;;;17.20;14.30;;;;;;;;;;5063583;28;20234;-78
2022/03/03 09:59:44;;;;;;;18.97;14.63;;;;;;;;;;5043759;28;20243;-76
2022/03/03 10:02:12;;;;;;;16.17;14.23;;;;;;;;;;5044497;28;20200;-77
2022/03/03 10:04:41;;;;;;;16.37;14.30;;;;;;;;;;5057417;28;20643;-76
2022/03/03 10:07:10;;;;;;;16.00;14.33;;;;;;;;;;5063166;28;20218;-76
2022/03/03 10:12:23;;;;;;;17.07;14.73;;;;;;;;;;5044619;28;20208;-77
2022/03/03 10:14:51;;;;;;;18.63;15.80;;;;;;;;;;5056981;28;20207;-76
2022/03/03 10:17:20;;;;;;;18.37;14.50;;;;;;;;;;5062953;28;20223;-76
2022/03/03 10:19:52;;;;;;;18.30;15.13;;;;;;;;;;5062638;28;20207;-79
2022/03/03 10:22:25;;;;;;;17.13;14.80;;;;;;;;;;5054113;28;20219;-76
2022/03/03 10:24:54;;;;;;;16.40;14.53;;;;;;;;;;5060114;28;20203;-76
2022/03/03 10:27:24;;;;;;;17.97;15.73;;;;;;;;;;5063297;28;20234;-77
2022/03/03 10:29:52;;;;;;;18.33;15.93;;;;;;;;;;5043108;28;20203;-76
2022/03/03 10:32:24;;;;;;;17.97;15.97;;;;;;;;;;5054968;28;20211;-78
2022/03/03 10:34:54;;;;;;;21.90;16.33;;;;;;;;;;5049328;28;20195;-77
2022/03/03 10:37:23;;;;;;;18.33;16.27;;;;;;;;;;5062232;28;20249;-81
2022/03/03 10:39:57;;;;;;;18.03;16.20;;;;;;;;;;5057720;28;20257;-77
2022/03/03 10:42:32;;;;;;;18.77;16.77;;;;;;;;;;5062785;28;20286;-78
2022/03/03 10:45:08;;;;;;;18.27;15.70;;;;;;;;;;5061439;28;20200;-77
2022/03/03 10:47:37;;;;;;;17.53;15.73;;;;;;;;;;5064719;28;20223;-76
2022/03/03 10:50:06;;;;;;;17.03;15.23;;;;;;;;;;5065313;28;20209;-76
2022/03/03 10:52:40;;;;;;;17.80;15.90;;;;;;;;;;5065503;28;20257;-77
2022/03/03 10:55:10;;;;;;;20.27;16.63;;;;;;;;;;5061203;28;20199;-78
2022/03/03 10:57:41;;;;;;;18.50;16.60;;;;;;;;;;5047076;28;20227;-77
2022/03/03 11:00:12;;;;;;;18.60;16.70;;;;;;;;;;5056478;28;20214;-77
2022/03/03 11:02:43;;;;;;;17.63;15.83;;;;;;;;;;5065170;28;20241;-76
2022/03/03 11:05:12;;;;;;;17.50;15.70;;;;;;;;;;5054314;28;20264;-76
2022/03/03 11:07:42;;;;;;;17.13;14.33;;;;;;;;;;5042997;28;20644;-77
2022/03/03 11:10:12;;;;;;;19.87;16.03;;;;;;;;;;5046239;28;20196;-77
2022/03/03 11:12:42;;;;;;;18.27;15.83;;;;;;;;;;5047339;28;20196;-78
2022/03/03 11:15:12;;;;;;;16.80;15.10;;;;;;;;;;5054597;28;20192;-77
2022/03/03 11:17:41;;;;;;;15.87;14.23;;;;;;;;;;5065963;28;20227;-77
2022/03/03 11:20:11;;;;;;;17.03;15.17;;;;;;;;;;5063245;28;20681;-77
2022/03/03 11:22:40;;;;;;;16.30;14.70;;;;;;;;;;5063905;28;20203;-77
2022/03/03 11:25:10;;;;;;;17.20;14.87;;;;;;;;;;5054915;28;20242;-77
2022/03/03 11:27:39;;;;;;;17.30;15.50;;;;;;;;;;5046627;28;20247;-77
2022/03/03 11:30:16;;;;;;;20.03;15.73;;;;;;;;;;5066402;28;20218;-77
2022/03/03 11:32:45;;;;;;;16.70;14.97;;;;;;;;;;5026142;28;1149263;-77
2022/03/03 11:35:15;;;;;;;16.17;14.47;;;;;;;;;;5058887;28;20222;-77
2022/03/03 11:37:44;;;;;;;17.77;15.97;;;;;;;;;;5065796;28;20249;-79
2022/03/03 11:40:13;;;;;;;18.40;16.30;;;;;;;;;;5064773;28;20199;-77
2022/03/03 11:42:48;;;;;;;18.60;16.07;;;;;;;;;;5065692;28;20207;-78
2022/03/03 11:45:33;;;;;;;17.60;15.50;;;;;;;;;;5051959;28;20200;-78
2022/03/03 11:48:12;;;;;;;17.60;14.97;;;;;;;;;;5053332;28;20219;-78
2022/03/03 11:50:41;;;;;;;17.50;14.90;;;;;;;;;;5061928;28;20207;-78
2022/03/03 11:53:18;;;;;;;17.27;15.17;;;;;;;;;;5063974;28;20203;-77
2022/03/03 11:56:10;;;;;;;18.87;15.77;;;;;;;;;;5065718;28;20203;-77
2022/03/03 11:58:39;;;;;;;19.23;16.30;;;;;;;;;;5052086;28;20199;-77
2022/03/03 12:01:11;;;;;;;19.33;16.30;;;;;;;;;;5065408;28;20203;-77
2022/03/03 12:03:58;;;;;;;16.77;15.00;;;;;;;;;;5065617;28;20193;-77
2022/03/03 12:06:36;;;;;;;19.23;16.57;;;;;;;;;;5065164;28;20235;-78
2022/03/03 12:09:21;;;;;;;17.60;15.70;;;;;;;;;;5065378;28;20203;-77
2022/03/03 12:11:50;;;;;;;17.63;15.63;;;;;;;;;;5063018;28;20191;-80
2022/03/03 12:14:32;;;;;;;19.87;16.27;;;;;;;;;;5064528;28;20237;-77
2022/03/03 12:17:19;;;;;;;19.53;16.07;;;;;;;;;;5043742;28;20591;-78
2022/03/03 12:19:50;;;;;;;19.73;16.40;;;;;;;;;;5045446;28;20693;-78
2022/03/03 12:22:25;;;;;;;17.67;15.83;;;;;;;;;;5046430;28;20553;-78
2022/03/03 12:24:54;;;;;;;19.00;17.03;;;;;;;;;;5047875;28;20650;-77
2022/03/03 12:27:22;;;;;;;19.60;16.77;;;;;;;;;;5045732;28;20230;-77
2022/03/03 12:29:52;;;;;;;18.60;16.47;;;;;;;;;;5045930;28;20227;-77
2022/03/03 12:32:41;;;;;;;19.90;17.73;;;;;;;;;;5047109;28;20262;-78
2022/03/03 12:35:13;;;;;;;17.77;15.87;;;;;;;;;;5059792;28;20203;-79
2022/03/03 12:37:44;;;;;;;20.03;17.17;;;;;;;;;;5065882;28;20238;-78
2022/03/03 12:40:18;;;;;;;19.60;17.40;;;;;;;;;;5052350;28;20265;-78
2022/03/03 12:42:47;;;;;;;20.40;17.10;;;;;;;;;;5046602;28;20261;-77
2022/03/03 12:45:16;;;;;;;19.97;17.50;;;;;;;;;;5051306;28;20203;-77
2022/03/03 12:47:46;;;;;;;19.87;17.70;;;;;;;;;;5062898;28;20222;-77
2022/03/03 12:50:18;;;;;;;19.53;17.23;;;;;;;;;;5045666;28;20220;-79
2022/03/03 12:52:57;;;;;;;17.93;16.03;;;;;;;;;;5052550;28;20221;-78
2022/03/03 12:55:31;;;;;;;18.77;16.33;;;;;;;;;;5072175;28;20202;-77
2022/03/03 12:58:00;;;;;;;18.57;15.87;;;;;;;;;;5074072;28;20273;-78
2022/03/03 13:00:28;;;;;;;16.53;14.70;;;;;;;;;;5045599;28;20238;-78
2022/03/03 13:02:58;;;;;;;15.63;14.03;;;;;;;;;;5045968;28;20200;-79
2022/03/03 13:05:33;;;;;;;17.87;15.13;;;;;;;;;;5055093;28;20203;-79
2022/03/03 13:08:02;;;;;;;17.13;14.67;;;;;;;;;;5045131;28;20288;-78
2022/03/03 13:10:34;;;;;;;15.93;14.23;;;;;;;;;;5060087;28;20215;-78
2022/03/03 13:13:03;;;;;;;17.30;15.00;;;;;;;;;;5051036;28;20200;-78
2022/03/03 13:15:32;;;;;;;17.37;13.50;;;;;;;;;;5048379;28;20210;-78
2022/03/03 13:18:01;;;;;;;15.17;13.47;;;;;;;;;;5045937;28;20716;-77
2022/03/03 13:20:38;;;;;;;15.77;13.53;;;;;;;;;;5047826;28;20219;-77
2022/03/03 13:23:09;;;;;;;14.90;13.23;;;;;;;;;;5056562;28;20192;-78
2022/03/03 13:25:37;;;;;;;14.13;12.70;;;;;;;;;;5055577;28;20191;-78
2022/03/03 13:28:06;;;;;;;17.07;12.67;;;;;;;;;;5058735;28;20209;-77
2022/03/03 13:30:34;;;;;;;14.07;12.57;;;;;;;;;;5045722;28;20226;-78
2022/03/03 13:33:03;;;;;;;15.77;11.90;;;;;;;;;;5051490;28;20215;-79
2022/03/03 13:35:42;;;;;;;15.03;12.60;;;;;;;;;;5066485;28;20202;-78
2022/03/03 13:38:11;;;;;;;13.50;12.10;;;;;;;;;;5054237;28;20210;-78
2022/03/03 13:40:40;;;;;;;12.87;11.53;;;;;;;;;;5046625;28;20671;-78
2022/03/03 13:43:08;;;;;;;13.77;11.93;;;;;;;;;;5055277;28;20199;-78
2022/03/03 13:45:40;;;;;;;12.57;11.27;;;;;;;;;;5050826;28;20207;-79
2022/03/03 13:48:10;;;;;;;14.27;12.77;;;;;;;;;;5056201;28;20691;-79
2022/03/03 13:50:40;;;;;;;15.67;13.93;;;;;;;;;;5055976;28;20472;-78
2022/03/03 13:53:23;;;;;;;16.10;13.33;;;;;;;;;;5049923;28;20221;-78
2022/03/03 13:56:12;;;;;;;14.93;13.07;;;;;;;;;;5062852;28;20192;-80
2022/03/03 13:58:41;;;;;;;14.73;12.97;;;;;;;;;;5056349;28;20601;-77
2022/03/03 14:01:09;;;;;;;15.47;13.73;;;;;;;;;;5061648;28;20200;-77
2022/03/03 14:03:43;;;;;;;17.23;14.20;;;;;;;;;;5046496;28;20200;-78
2022/03/03 14:06:13;;;;;;;16.27;14.47;;;;;;;;;;5053471;28;20698;-79
2022/03/03 14:08:46;;;;;;;15.50;13.90;;;;;;;;;;5049462;28;20236;-80
2022/03/03 14:11:25;;;;;;;15.37;13.53;;;;;;;;;;5064532;28;20306;-79
2022/03/03 14:13:55;;;;;;;17.37;15.37;;;;;;;;;;5070146;28;20546;-78
2022/03/03 14:16:24;;;;;;;18.03;15.03;;;;;;;;;;5073992;28;20262;-77
2022/03/03 14:18:53;;;;;;;17.10;12.20;;;;;;;;;;5063207;28;20200;-80
2022/03/03 14:21:22;;;;;;;15.30;12.77;;;;;;;;;;5055501;28;20207;-78
2022/03/03 14:23:52;;;;;;;16.00;14.23;;;;;;;;;;5075137;28;20194;-79
2022/03/03 14:26:40;;;;;;;18.10;14.67;;;;;;;;;;5053985;28;20220;-78
2022/03/03 14:29:09;;;;;;;15.73;12.73;;;;;;;;;;5058750;28;20282;-78
2022/03/03 14:31:37;;;;;;;15.80;12.90;;;;;;;;;;5065332;28;20211;-78
2022/03/03 14:34:09;;;;;;;15.83;13.13;;;;;;;;;;5080031;28;20591;-78
2022/03/03 14:36:42;;;;;;;18.23;14.40;;;;;;;;;;5078654;28;20244;-78
2022/03/03 14:39:12;;;;;;;17.03;14.40;;;;;;;;;;5047914;28;20274;-79
2022/03/03 14:41:41;;;;;;;16.77;14.70;;;;;;;;;;5075830;28;20218;-79